sensor_id;sensor_type;location;lat;lon;timestamp;P1;durP1;ratioP1;P2;durP2;ratioP2
15679;SDS011;15488;48.114;11.532;2023-07-13T00:01:16;2.97;;;2.67;;
15679;SDS011;15488;48.114;11.532;2023-07-13T00:03:44;3.20;;;2.60;;
15679;SDS011;15488;48.114;11.532;2023-07-13T00:06:11;3.67;;;2.77;;
15679;SDS011;15488;48.114;11.532;2023-07-13T00:08:39;4.37;;;2.90;;
15679;SDS011;15488;48.114;11.532;2023-07-13T00:11:06;2.93;;;2.63;;
15679;SDS011;15488;48.114;11.532;2023-07-13T00:13:37;2.90;;;2.50;;
15679;SDS011;15488;48.114;11.532;2023-07-13T00:16:04;2.70;;;2.17;;
15679;SDS011;15488;48.114;11.532;2023-07-13T00:18:32;3.30;;;2.30;;
15679;SDS011;15488;48.114;11.532;2023-07-13T00:21:00;2.87;;;2.43;;
15679;SDS011;15488;48.114;11.532;2023-07-13T00:23:31;2.90;;;2.40;;
15679;SDS011;15488;48.114;11.532;2023-07-13T00:25:59;2.87;;;2.57;;
15679;SDS011;15488;48.114;11.532;2023-07-13T00:28:27;2.77;;;2.50;;
15679;SDS011;15488;48.114;11.532;2023-07-13T00:30:56;4.27;;;2.20;;
15679;SDS011;15488;48.114;11.532;2023-07-13T00:33:23;2.90;;;2.30;;
15679;SDS011;15488;48.114;11.532;2023-07-13T00:35:51;2.73;;;2.23;;
15679;SDS011;15488;48.114;11.532;2023-07-13T00:38:19;3.63;;;2.40;;
15679;SDS011;15488;48.114;11.532;2023-07-13T00:40:47;2.47;;;2.27;;
15679;SDS011;15488;48.114;11.532;2023-07-13T00:43:15;3.20;;;2.33;;
15679;SDS011;15488;48.114;11.532;2023-07-13T00:48:42;2.27;;;2.07;;
15679;SDS011;15488;48.114;11.532;2023-07-13T00:51:12;2.30;;;2.10;;
15679;SDS011;15488;48.114;11.532;2023-07-13T00:53:41;2.83;;;2.00;;
15679;SDS011;15488;48.114;11.532;2023-07-13T00:56:09;2.00;;;1.80;;
15679;SDS011;15488;48.114;11.532;2023-07-13T00:58:37;3.47;;;2.00;;
15679;SDS011;15488;48.114;11.532;2023-07-13T01:01:05;4.30;;;1.90;;
15679;SDS011;15488;48.114;11.532;2023-07-13T01:03:34;2.80;;;2.10;;
15679;SDS011;15488;48.114;11.532;2023-07-13T01:06:03;2.40;;;2.00;;
15679;SDS011;15488;48.114;11.532;2023-07-13T01:08:30;2.53;;;1.97;;
15679;SDS011;15488;48.114;11.532;2023-07-13T01:10:58;1.93;;;1.83;;
15679;SDS011;15488;48.114;11.532;2023-07-13T01:13:25;3.30;;;1.90;;
15679;SDS011;15488;48.114;11.532;2023-07-13T01:15:53;2.10;;;1.90;;
15679;SDS011;15488;48.114;11.532;2023-07-13T01:18:25;3.03;;;1.93;;
15679;SDS011;15488;48.114;11.532;2023-07-13T01:20:55;2.10;;;1.90;;
15679;SDS011;15488;48.114;11.532;2023-07-13T01:23:24;1.93;;;1.70;;
15679;SDS011;15488;48.114;11.532;2023-07-13T01:25:52;2.03;;;1.80;;
15679;SDS011;15488;48.114;11.532;2023-07-13T01:28:21;2.03;;;1.70;;
15679;SDS011;15488;48.114;11.532;2023-07-13T01:30:52;2.00;;;1.80;;
15679;SDS011;15488;48.114;11.532;2023-07-13T01:33:21;3.73;;;1.90;;
15679;SDS011;15488;48.114;11.532;2023-07-13T01:35:48;1.90;;;1.70;;
15679;SDS011;15488;48.114;11.532;2023-07-13T01:38:19;1.90;;;1.80;;
15679;SDS011;15488;48.114;11.532;2023-07-13T01:40:48;2.20;;;2.00;;
15679;SDS011;15488;48.114;11.532;2023-07-13T01:43:16;1.93;;;1.80;;
15679;SDS011;15488;48.114;11.532;2023-07-13T01:45:44;3.37;;;2.07;;
15679;SDS011;15488;48.114;11.532;2023-07-13T01:48:11;2.20;;;2.00;;
15679;SDS011;15488;48.114;11.532;2023-07-13T01:50:39;2.43;;;2.20;;
15679;SDS011;15488;48.114;11.532;2023-07-13T01:53:07;3.23;;;2.83;;
15679;SDS011;15488;48.114;11.532;2023-07-13T01:55:36;2.70;;;2.20;;
15679;SDS011;15488;48.114;11.532;2023-07-13T01:58:04;2.67;;;2.33;;
15679;SDS011;15488;48.114;11.532;2023-07-13T02:00:31;2.73;;;2.10;;
15679;SDS011;15488;48.114;11.532;2023-07-13T02:02:59;3.17;;;2.50;;
15679;SDS011;15488;48.114;11.532;2023-07-13T02:05:26;2.00;;;1.80;;
15679;SDS011;15488;48.114;11.532;2023-07-13T02:07:54;3.03;;;2.00;;
15679;SDS011;15488;48.114;11.532;2023-07-13T02:10:21;2.60;;;2.27;;
15679;SDS011;15488;48.114;11.532;2023-07-13T02:12:50;4.37;;;2.37;;
15679;SDS011;15488;48.114;11.532;2023-07-13T02:15:18;3.50;;;2.10;;
15679;SDS011;15488;48.114;11.532;2023-07-13T02:17:45;2.67;;;2.37;;
15679;SDS011;15488;48.114;11.532;2023-07-13T02:20:13;2.40;;;2.20;;
15679;SDS011;15488;48.114;11.532;2023-07-13T02:22:40;2.83;;;2.40;;
15679;SDS011;15488;48.114;11.532;2023-07-13T02:25:08;2.50;;;2.30;;
15679;SDS011;15488;48.114;11.532;2023-07-13T02:27:36;3.33;;;2.50;;
15679;SDS011;15488;48.114;11.532;2023-07-13T02:30:05;2.93;;;2.40;;
15679;SDS011;15488;48.114;11.532;2023-07-13T02:32:33;2.97;;;2.70;;
15679;SDS011;15488;48.114;11.532;2023-07-13T02:35:01;3.90;;;2.90;;
15679;SDS011;15488;48.114;11.532;2023-07-13T02:37:29;5.70;;;2.60;;
15679;SDS011;15488;48.114;11.532;2023-07-13T02:39:56;2.90;;;2.23;;
15679;SDS011;15488;48.114;11.532;2023-07-13T02:42:24;2.50;;;2.30;;
15679;SDS011;15488;48.114;11.532;2023-07-13T02:44:51;2.70;;;2.33;;
15679;SDS011;15488;48.114;11.532;2023-07-13T02:47:20;3.73;;;2.23;;
15679;SDS011;15488;48.114;11.532;2023-07-13T02:49:47;4.10;;;2.30;;
15679;SDS011;15488;48.114;11.532;2023-07-13T02:52:15;2.63;;;2.23;;
15679;SDS011;15488;48.114;11.532;2023-07-13T02:54:42;3.73;;;2.60;;
15679;SDS011;15488;48.114;11.532;2023-07-13T02:57:10;4.10;;;2.50;;
15679;SDS011;15488;48.114;11.532;2023-07-13T02:59:37;3.50;;;2.97;;
15679;SDS011;15488;48.114;11.532;2023-07-13T03:02:05;3.40;;;2.80;;
15679;SDS011;15488;48.114;11.532;2023-07-13T03:04:34;4.37;;;3.17;;
15679;SDS011;15488;48.114;11.532;2023-07-13T03:07:02;3.40;;;3.10;;
15679;SDS011;15488;48.114;11.532;2023-07-13T03:09:30;4.07;;;2.87;;
15679;SDS011;15488;48.114;11.532;2023-07-13T03:11:59;3.80;;;2.87;;
15679;SDS011;15488;48.114;11.532;2023-07-13T03:14:26;3.77;;;2.87;;
15679;SDS011;15488;48.114;11.532;2023-07-13T03:16:55;3.50;;;3.20;;
15679;SDS011;15488;48.114;11.532;2023-07-13T03:19:22;3.50;;;2.70;;
15679;SDS011;15488;48.114;11.532;2023-07-13T03:21:51;3.93;;;2.70;;
15679;SDS011;15488;48.114;11.532;2023-07-13T03:24:19;3.47;;;2.40;;
15679;SDS011;15488;48.114;11.532;2023-07-13T03:26:50;2.87;;;2.27;;
15679;SDS011;15488;48.114;11.532;2023-07-13T03:29:18;3.20;;;2.50;;
15679;SDS011;15488;48.114;11.532;2023-07-13T03:31:45;3.73;;;2.80;;
15679;SDS011;15488;48.114;11.532;2023-07-13T03:34:13;3.70;;;2.60;;
15679;SDS011;15488;48.114;11.532;2023-07-13T03:36:40;3.80;;;2.73;;
15679;SDS011;15488;48.114;11.532;2023-07-13T03:39:09;3.23;;;2.47;;
15679;SDS011;15488;48.114;11.532;2023-07-13T03:41:36;3.33;;;2.30;;
15679;SDS011;15488;48.114;11.532;2023-07-13T03:44:04;4.23;;;2.50;;
15679;SDS011;15488;48.114;11.532;2023-07-13T03:46:31;3.93;;;2.10;;
15679;SDS011;15488;48.114;11.532;2023-07-13T03:48:59;2.87;;;2.40;;
15679;SDS011;15488;48.114;11.532;2023-07-13T03:51:27;2.70;;;2.47;;
15679;SDS011;15488;48.114;11.532;2023-07-13T03:53:54;3.30;;;2.17;;
15679;SDS011;15488;48.114;11.532;2023-07-13T03:56:23;3.53;;;2.40;;
15679;SDS011;15488;48.114;11.532;2023-07-13T03:58:50;3.90;;;2.50;;
15679;SDS011;15488;48.114;11.532;2023-07-13T04:01:18;2.90;;;2.17;;
15679;SDS011;15488;48.114;11.532;2023-07-13T04:03:47;3.03;;;2.13;;
15679;SDS011;15488;48.114;11.532;2023-07-13T04:06:16;2.20;;;2.00;;
15679;SDS011;15488;48.114;11.532;2023-07-13T04:08:46;2.67;;;2.20;;
15679;SDS011;15488;48.114;11.532;2023-07-13T04:11:16;2.40;;;2.20;;
15679;SDS011;15488;48.114;11.532;2023-07-13T04:13:45;3.03;;;2.03;;
15679;SDS011;15488;48.114;11.532;2023-07-13T04:16:14;3.47;;;2.10;;
15679;SDS011;15488;48.114;11.532;2023-07-13T04:18:42;5.30;;;2.50;;
15679;SDS011;15488;48.114;11.532;2023-07-13T04:21:10;3.40;;;2.10;;
15679;SDS011;15488;48.114;11.532;2023-07-13T04:23:38;4.03;;;2.60;;
15679;SDS011;15488;48.114;11.532;2023-07-13T04:26:06;2.87;;;2.10;;
15679;SDS011;15488;48.114;11.532;2023-07-13T04:28:34;5.20;;;2.33;;
15679;SDS011;15488;48.114;11.532;2023-07-13T04:31:03;3.93;;;2.37;;
15679;SDS011;15488;48.114;11.532;2023-07-13T04:33:31;3.77;;;2.40;;
15679;SDS011;15488;48.114;11.532;2023-07-13T04:35:58;3.43;;;2.10;;
15679;SDS011;15488;48.114;11.532;2023-07-13T04:38:27;3.17;;;2.10;;
15679;SDS011;15488;48.114;11.532;2023-07-13T04:40:57;3.13;;;2.20;;
15679;SDS011;15488;48.114;11.532;2023-07-13T04:43:26;2.77;;;2.20;;
15679;SDS011;15488;48.114;11.532;2023-07-13T04:45:54;2.57;;;2.17;;
15679;SDS011;15488;48.114;11.532;2023-07-13T04:48:23;2.70;;;2.17;;
15679;SDS011;15488;48.114;11.532;2023-07-13T04:50:54;2.77;;;2.07;;
15679;SDS011;15488;48.114;11.532;2023-07-13T04:53:22;2.33;;;2.00;;
15679;SDS011;15488;48.114;11.532;2023-07-13T04:55:50;3.07;;;2.40;;
15679;SDS011;15488;48.114;11.532;2023-07-13T04:58:17;4.63;;;2.77;;
15679;SDS011;15488;48.114;11.532;2023-07-13T05:00:46;3.20;;;2.20;;
15679;SDS011;15488;48.114;11.532;2023-07-13T05:03:14;2.80;;;2.10;;
15679;SDS011;15488;48.114;11.532;2023-07-13T05:05:43;2.93;;;2.20;;
15679;SDS011;15488;48.114;11.532;2023-07-13T05:08:20;4.00;;;2.20;;
15679;SDS011;15488;48.114;11.532;2023-07-13T05:10:48;3.53;;;2.30;;
15679;SDS011;15488;48.114;11.532;2023-07-13T05:13:16;2.53;;;2.10;;
15679;SDS011;15488;48.114;11.532;2023-07-13T05:15:43;3.73;;;2.23;;
15679;SDS011;15488;48.114;11.532;2023-07-13T05:18:11;2.40;;;1.80;;
15679;SDS011;15488;48.114;11.532;2023-07-13T05:20:38;2.40;;;2.10;;
15679;SDS011;15488;48.114;11.532;2023-07-13T05:23:07;3.10;;;2.20;;
15679;SDS011;15488;48.114;11.532;2023-07-13T05:25:35;3.63;;;2.10;;
15679;SDS011;15488;48.114;11.532;2023-07-13T05:28:02;3.50;;;2.17;;
15679;SDS011;15488;48.114;11.532;2023-07-13T05:30:29;3.70;;;2.00;;
15679;SDS011;15488;48.114;11.532;2023-07-13T05:32:58;3.50;;;2.27;;
15679;SDS011;15488;48.114;11.532;2023-07-13T05:35:26;3.27;;;2.27;;
15679;SDS011;15488;48.114;11.532;2023-07-13T05:37:53;3.30;;;2.17;;
15679;SDS011;15488;48.114;11.532;2023-07-13T05:40:22;2.80;;;2.10;;
15679;SDS011;15488;48.114;11.532;2023-07-13T05:42:49;2.80;;;2.20;;
15679;SDS011;15488;48.114;11.532;2023-07-13T05:45:17;4.97;;;2.37;;
15679;SDS011;15488;48.114;11.532;2023-07-13T05:47:44;3.17;;;2.37;;
15679;SDS011;15488;48.114;11.532;2023-07-13T05:50:12;5.57;;;2.70;;
15679;SDS011;15488;48.114;11.532;2023-07-13T05:52:39;3.67;;;2.27;;
15679;SDS011;15488;48.114;11.532;2023-07-13T05:55:09;1.97;;;1.80;;
15679;SDS011;15488;48.114;11.532;2023-07-13T05:57:38;3.20;;;2.40;;
15679;SDS011;15488;48.114;11.532;2023-07-13T06:00:06;2.30;;;2.10;;
15679;SDS011;15488;48.114;11.532;2023-07-13T06:02:34;2.87;;;2.27;;
15679;SDS011;15488;48.114;11.532;2023-07-13T06:05:02;5.73;;;2.20;;
15679;SDS011;15488;48.114;11.532;2023-07-13T06:07:30;2.73;;;2.17;;
15679;SDS011;15488;48.114;11.532;2023-07-13T06:09:57;4.90;;;2.40;;
15679;SDS011;15488;48.114;11.532;2023-07-13T06:12:25;3.00;;;2.27;;
15679;SDS011;15488;48.114;11.532;2023-07-13T06:14:54;3.33;;;2.50;;
15679;SDS011;15488;48.114;11.532;2023-07-13T06:17:21;4.37;;;2.20;;
15679;SDS011;15488;48.114;11.532;2023-07-13T06:19:49;3.27;;;2.30;;
15679;SDS011;15488;48.114;11.532;2023-07-13T06:22:16;3.80;;;3.20;;
15679;SDS011;15488;48.114;11.532;2023-07-13T06:24:44;3.40;;;2.40;;
15679;SDS011;15488;48.114;11.532;2023-07-13T06:27:11;2.50;;;2.30;;
15679;SDS011;15488;48.114;11.532;2023-07-13T06:29:38;4.57;;;2.30;;
15679;SDS011;15488;48.114;11.532;2023-07-13T06:32:08;4.43;;;2.10;;
15679;SDS011;15488;48.114;11.532;2023-07-13T06:34:35;2.97;;;2.37;;
15679;SDS011;15488;48.114;11.532;2023-07-13T06:37:03;2.27;;;2.07;;
15679;SDS011;15488;48.114;11.532;2023-07-13T06:39:31;4.63;;;2.43;;
15679;SDS011;15488;48.114;11.532;2023-07-13T06:41:58;3.57;;;2.23;;
15679;SDS011;15488;48.114;11.532;2023-07-13T06:44:25;3.43;;;2.27;;
15679;SDS011;15488;48.114;11.532;2023-07-13T06:46:53;2.97;;;2.20;;
15679;SDS011;15488;48.114;11.532;2023-07-13T06:49:22;4.13;;;2.33;;
15679;SDS011;15488;48.114;11.532;2023-07-13T06:51:49;2.50;;;2.30;;
15679;SDS011;15488;48.114;11.532;2023-07-13T06:54:16;2.47;;;2.27;;
15679;SDS011;15488;48.114;11.532;2023-07-13T06:56:44;2.80;;;2.37;;
15679;SDS011;15488;48.114;11.532;2023-07-13T06:59:11;3.33;;;2.40;;
15679;SDS011;15488;48.114;11.532;2023-07-13T07:01:39;2.53;;;2.30;;
15679;SDS011;15488;48.114;11.532;2023-07-13T07:04:06;2.87;;;2.57;;
15679;SDS011;15488;48.114;11.532;2023-07-13T07:06:35;3.70;;;2.70;;
15679;SDS011;15488;48.114;11.532;2023-07-13T07:09:02;3.63;;;2.30;;
15679;SDS011;15488;48.114;11.532;2023-07-13T07:11:30;2.97;;;2.50;;
15679;SDS011;15488;48.114;11.532;2023-07-13T07:13:57;4.50;;;2.93;;
15679;SDS011;15488;48.114;11.532;2023-07-13T07:16:25;5.47;;;2.53;;
15679;SDS011;15488;48.114;11.532;2023-07-13T07:18:52;2.30;;;2.10;;
15679;SDS011;15488;48.114;11.532;2023-07-13T07:21:19;3.57;;;2.00;;
15679;SDS011;15488;48.114;11.532;2023-07-13T07:23:49;2.70;;;2.30;;
15679;SDS011;15488;48.114;11.532;2023-07-13T07:26:17;4.60;;;2.10;;
15679;SDS011;15488;48.114;11.532;2023-07-13T07:28:45;2.80;;;2.50;;
15679;SDS011;15488;48.114;11.532;2023-07-13T07:31:12;3.43;;;2.10;;
15679;SDS011;15488;48.114;11.532;2023-07-13T07:33:40;3.43;;;2.20;;
15679;SDS011;15488;48.114;11.532;2023-07-13T07:36:08;4.10;;;2.20;;
15679;SDS011;15488;48.114;11.532;2023-07-13T07:38:36;4.37;;;2.50;;
15679;SDS011;15488;48.114;11.532;2023-07-13T07:41:05;3.27;;;2.10;;
15679;SDS011;15488;48.114;11.532;2023-07-13T07:43:33;3.00;;;2.50;;
15679;SDS011;15488;48.114;11.532;2023-07-13T07:46:00;2.97;;;2.20;;
15679;SDS011;15488;48.114;11.532;2023-07-13T07:48:28;3.30;;;2.30;;
15679;SDS011;15488;48.114;11.532;2023-07-13T07:50:55;4.00;;;2.30;;
15679;SDS011;15488;48.114;11.532;2023-07-13T07:53:23;2.60;;;2.37;;
15679;SDS011;15488;48.114;11.532;2023-07-13T07:55:50;3.10;;;2.50;;
15679;SDS011;15488;48.114;11.532;2023-07-13T07:58:19;3.77;;;2.73;;
15679;SDS011;15488;48.114;11.532;2023-07-13T08:00:47;4.90;;;2.60;;
15679;SDS011;15488;48.114;11.532;2023-07-13T08:03:14;3.07;;;2.50;;
15679;SDS011;15488;48.114;11.532;2023-07-13T08:05:41;3.00;;;2.30;;
15679;SDS011;15488;48.114;11.532;2023-07-13T08:08:09;3.73;;;2.80;;
15679;SDS011;15488;48.114;11.532;2023-07-13T08:10:36;4.23;;;3.57;;
15679;SDS011;15488;48.114;11.532;2023-07-13T08:13:04;2.93;;;2.20;;
15679;SDS011;15488;48.114;11.532;2023-07-13T08:15:33;3.80;;;2.70;;
15679;SDS011;15488;48.114;11.532;2023-07-13T08:18:00;4.17;;;2.50;;
15679;SDS011;15488;48.114;11.532;2023-07-13T08:20:28;2.60;;;2.27;;
15679;SDS011;15488;48.114;11.532;2023-07-13T08:22:55;4.00;;;2.70;;
15679;SDS011;15488;48.114;11.532;2023-07-13T08:25:22;3.77;;;2.57;;
15679;SDS011;15488;48.114;11.532;2023-07-13T08:27:50;4.43;;;2.67;;
15679;SDS011;15488;48.114;11.532;2023-07-13T08:30:17;3.00;;;2.63;;
15679;SDS011;15488;48.114;11.532;2023-07-13T08:32:46;4.77;;;2.53;;
15679;SDS011;15488;48.114;11.532;2023-07-13T08:35:14;2.90;;;2.47;;
15679;SDS011;15488;48.114;11.532;2023-07-13T08:37:42;2.83;;;2.40;;
15679;SDS011;15488;48.114;11.532;2023-07-13T08:40:09;4.13;;;2.70;;
15679;SDS011;15488;48.114;11.532;2023-07-13T08:42:39;3.67;;;2.40;;
15679;SDS011;15488;48.114;11.532;2023-07-13T08:45:14;2.70;;;2.27;;
15679;SDS011;15488;48.114;11.532;2023-07-13T08:47:50;2.70;;;2.50;;
15679;SDS011;15488;48.114;11.532;2023-07-13T08:50:22;4.43;;;2.43;;
15679;SDS011;15488;48.114;11.532;2023-07-13T08:52:54;4.40;;;2.70;;
15679;SDS011;15488;48.114;11.532;2023-07-13T08:55:24;4.70;;;2.43;;
15679;SDS011;15488;48.114;11.532;2023-07-13T08:57:59;4.87;;;2.60;;
15679;SDS011;15488;48.114;11.532;2023-07-13T09:00:33;4.93;;;2.93;;
15679;SDS011;15488;48.114;11.532;2023-07-13T09:03:10;2.97;;;2.33;;
15679;SDS011;15488;48.114;11.532;2023-07-13T09:05:45;3.87;;;2.47;;
15679;SDS011;15488;48.114;11.532;2023-07-13T09:08:26;3.73;;;2.40;;
15679;SDS011;15488;48.114;11.532;2023-07-13T09:11:04;3.27;;;2.30;;
15679;SDS011;15488;48.114;11.532;2023-07-13T09:13:42;3.63;;;2.20;;
15679;SDS011;15488;48.114;11.532;2023-07-13T09:16:18;2.60;;;1.97;;
15679;SDS011;15488;48.114;11.532;2023-07-13T09:18:47;2.60;;;2.10;;
15679;SDS011;15488;48.114;11.532;2023-07-13T09:21:17;3.87;;;2.10;;
15679;SDS011;15488;48.114;11.532;2023-07-13T09:23:48;2.43;;;2.23;;
15679;SDS011;15488;48.114;11.532;2023-07-13T09:26:19;3.53;;;2.17;;
15679;SDS011;15488;48.114;11.532;2023-07-13T09:28:48;3.00;;;2.70;;
15679;SDS011;15488;48.114;11.532;2023-07-13T09:31:20;3.30;;;2.50;;
15679;SDS011;15488;48.114;11.532;2023-07-13T09:33:53;6.80;;;2.97;;
15679;SDS011;15488;48.114;11.532;2023-07-13T09:36:22;6.80;;;2.90;;
15679;SDS011;15488;48.114;11.532;2023-07-13T09:38:55;6.27;;;2.47;;
15679;SDS011;15488;48.114;11.532;2023-07-13T09:41:30;3.27;;;2.50;;
15679;SDS011;15488;48.114;11.532;2023-07-13T09:44:10;2.83;;;2.03;;
15679;SDS011;15488;48.114;11.532;2023-07-13T09:46:39;4.83;;;2.20;;
15679;SDS011;15488;48.114;11.532;2023-07-13T09:49:12;4.37;;;2.23;;
15679;SDS011;15488;48.114;11.532;2023-07-13T09:51:40;3.10;;;2.20;;
15679;SDS011;15488;48.114;11.532;2023-07-13T09:54:17;3.10;;;2.03;;
15679;SDS011;15488;48.114;11.532;2023-07-13T09:56:46;4.90;;;2.20;;
15679;SDS011;15488;48.114;11.532;2023-07-13T09:59:19;2.77;;;2.20;;
15679;SDS011;15488;48.114;11.532;2023-07-13T10:01:49;3.17;;;2.30;;
15679;SDS011;15488;48.114;11.532;2023-07-13T10:04:19;5.77;;;2.30;;
15679;SDS011;15488;48.114;11.532;2023-07-13T10:06:54;5.67;;;1.80;;
15679;SDS011;15488;48.114;11.532;2023-07-13T10:09:32;2.80;;;2.10;;
15679;SDS011;15488;48.114;11.532;2023-07-13T10:12:00;3.90;;;1.80;;
15679;SDS011;15488;48.114;11.532;2023-07-13T10:14:27;3.83;;;2.10;;
15679;SDS011;15488;48.114;11.532;2023-07-13T10:16:58;3.27;;;1.90;;
15679;SDS011;15488;48.114;11.532;2023-07-13T10:19:29;2.27;;;1.90;;
15679;SDS011;15488;48.114;11.532;2023-07-13T10:22:01;2.70;;;2.00;;
15679;SDS011;15488;48.114;11.532;2023-07-13T10:24:38;3.90;;;1.80;;
15679;SDS011;15488;48.114;11.532;2023-07-13T10:27:09;3.47;;;1.80;;
15679;SDS011;15488;48.114;11.532;2023-07-13T10:29:43;3.20;;;1.90;;
15679;SDS011;15488;48.114;11.532;2023-07-13T10:32:13;2.60;;;1.60;;
15679;SDS011;15488;48.114;11.532;2023-07-13T10:34:43;3.27;;;1.43;;
15679;SDS011;15488;48.114;11.532;2023-07-13T10:37:15;2.27;;;1.77;;
15679;SDS011;15488;48.114;11.532;2023-07-13T10:39:46;3.23;;;1.63;;
15679;SDS011;15488;48.114;11.532;2023-07-13T10:42:16;1.90;;;1.70;;
15679;SDS011;15488;48.114;11.532;2023-07-13T10:44:53;2.33;;;1.50;;
15679;SDS011;15488;48.114;11.532;2023-07-13T10:47:20;7.87;;;1.70;;
15679;SDS011;15488;48.114;11.532;2023-07-13T10:49:52;4.57;;;1.97;;
15679;SDS011;15488;48.114;11.532;2023-07-13T10:52:42;1.73;;;1.60;;
15679;SDS011;15488;48.114;11.532;2023-07-13T10:55:32;1.90;;;1.60;;
15679;SDS011;15488;48.114;11.532;2023-07-13T10:58:01;2.37;;;1.70;;
15679;SDS011;15488;48.114;11.532;2023-07-13T11:00:42;1.83;;;1.60;;
15679;SDS011;15488;48.114;11.532;2023-07-13T11:03:14;2.93;;;1.60;;
15679;SDS011;15488;48.114;11.532;2023-07-13T11:05:45;3.90;;;1.63;;
15679;SDS011;15488;48.114;11.532;2023-07-13T11:08:19;2.43;;;1.60;;
15679;SDS011;15488;48.114;11.532;2023-07-13T11:10:58;1.80;;;1.70;;
15679;SDS011;15488;48.114;11.532;2023-07-13T11:13:36;2.60;;;1.63;;
15679;SDS011;15488;48.114;11.532;2023-07-13T11:25:21;2.30;;;1.60;;
15679;SDS011;15488;48.114;11.532;2023-07-13T11:28:04;2.73;;;2.20;;
15679;SDS011;15488;48.114;11.532;2023-07-13T11:30:39;2.67;;;1.57;;
15679;SDS011;15488;48.114;11.532;2023-07-13T11:33:13;3.30;;;1.60;;
15679;SDS011;15488;48.114;11.532;2023-07-13T11:35:51;3.30;;;1.80;;
15679;SDS011;15488;48.114;11.532;2023-07-13T11:38:30;2.03;;;1.83;;
15679;SDS011;15488;48.114;11.532;2023-07-13T11:41:03;4.03;;;1.73;;
15679;SDS011;15488;48.114;11.532;2023-07-13T11:43:32;1.67;;;1.57;;
15679;SDS011;15488;48.114;11.532;2023-07-13T11:46:11;3.37;;;1.87;;
15679;SDS011;15488;48.114;11.532;2023-07-13T11:48:40;2.33;;;1.67;;
15679;SDS011;15488;48.114;11.532;2023-07-13T11:51:09;1.70;;;1.43;;
15679;SDS011;15488;48.114;11.532;2023-07-13T11:53:48;2.40;;;1.47;;
15679;SDS011;15488;48.114;11.532;2023-07-13T11:56:18;2.28;;;1.50;;
15679;SDS011;15488;48.114;11.532;2023-07-13T11:58:48;2.45;;;1.50;;
15679;SDS011;15488;48.114;11.532;2023-07-13T12:01:18;2.60;;;1.60;;
15679;SDS011;15488;48.114;11.532;2023-07-13T12:03:48;1.63;;;1.52;;
15679;SDS011;15488;48.114;11.532;2023-07-13T12:06:24;2.83;;;1.50;;
15679;SDS011;15488;48.114;11.532;2023-07-13T12:08:57;3.90;;;1.85;;
15679;SDS011;15488;48.114;11.532;2023-07-13T12:11:26;2.92;;;1.50;;
15679;SDS011;15488;48.114;11.532;2023-07-13T12:13:55;2.20;;;1.60;;
15679;SDS011;15488;48.114;11.532;2023-07-13T12:16:25;2.95;;;1.70;;
15679;SDS011;15488;48.114;11.532;2023-07-13T12:18:57;2.17;;;1.63;;
15679;SDS011;15488;48.114;11.532;2023-07-13T12:21:29;3.22;;;1.60;;
15679;SDS011;15488;48.114;11.532;2023-07-13T12:24:00;3.85;;;1.60;;
15679;SDS011;15488;48.114;11.532;2023-07-13T12:26:29;1.80;;;1.60;;
15679;SDS011;15488;48.114;11.532;2023-07-13T12:28:58;2.75;;;1.63;;
15679;SDS011;15488;48.114;11.532;2023-07-13T12:31:31;2.30;;;1.67;;
15679;SDS011;15488;48.114;11.532;2023-07-13T12:34:02;1.88;;;1.70;;
15679;SDS011;15488;48.114;11.532;2023-07-13T12:36:33;2.25;;;1.80;;
15679;SDS011;15488;48.114;11.532;2023-07-13T12:39:16;2.10;;;1.70;;
15679;SDS011;15488;48.114;11.532;2023-07-13T12:41:46;2.92;;;1.90;;
15679;SDS011;15488;48.114;11.532;2023-07-13T12:44:16;3.28;;;1.70;;
15679;SDS011;15488;48.114;11.532;2023-07-13T12:46:55;2.03;;;1.70;;
15679;SDS011;15488;48.114;11.532;2023-07-13T12:49:26;3.17;;;1.70;;
15679;SDS011;15488;48.114;11.532;2023-07-13T12:52:00;2.13;;;1.77;;
15679;SDS011;15488;48.114;11.532;2023-07-13T12:54:30;2.25;;;1.80;;
15679;SDS011;15488;48.114;11.532;2023-07-13T12:56:58;2.65;;;1.83;;
15679;SDS011;15488;48.114;11.532;2023-07-13T12:59:29;3.58;;;1.60;;
15679;SDS011;15488;48.114;11.532;2023-07-13T13:02:01;1.80;;;1.50;;
15679;SDS011;15488;48.114;11.532;2023-07-13T13:04:43;1.83;;;1.73;;
15679;SDS011;15488;48.114;11.532;2023-07-13T13:07:11;4.47;;;1.90;;
15679;SDS011;15488;48.114;11.532;2023-07-13T13:09:40;2.33;;;1.80;;
15679;SDS011;15488;48.114;11.532;2023-07-13T13:12:08;1.85;;;1.75;;
15679;SDS011;15488;48.114;11.532;2023-07-13T13:14:35;1.65;;;1.55;;
15679;SDS011;15488;48.114;11.532;2023-07-13T13:17:04;2.85;;;1.90;;
15679;SDS011;15488;48.114;11.532;2023-07-13T13:19:46;4.60;;;2.13;;
15679;SDS011;15488;48.114;11.532;2023-07-13T13:22:15;2.72;;;1.50;;
15679;SDS011;15488;48.114;11.532;2023-07-13T13:24:44;1.70;;;1.60;;
15679;SDS011;15488;48.114;11.532;2023-07-13T13:27:14;3.83;;;1.80;;
15679;SDS011;15488;48.114;11.532;2023-07-13T13:29:43;3.25;;;2.95;;
15679;SDS011;15488;48.114;11.532;2023-07-13T13:32:11;2.30;;;1.77;;
15679;SDS011;15488;48.114;11.532;2023-07-13T13:34:39;2.15;;;1.80;;
15679;SDS011;15488;48.114;11.532;2023-07-13T13:37:10;1.73;;;1.63;;
15679;SDS011;15488;48.114;11.532;2023-07-13T13:39:46;2.08;;;1.90;;
15679;SDS011;15488;48.114;11.532;2023-07-13T13:42:14;1.67;;;1.52;;
15679;SDS011;15488;48.114;11.532;2023-07-13T13:44:41;2.03;;;1.70;;
15679;SDS011;15488;48.114;11.532;2023-07-13T13:47:17;4.05;;;2.10;;
15679;SDS011;15488;48.114;11.532;2023-07-13T13:49:50;3.55;;;1.55;;
15679;SDS011;15488;48.114;11.532;2023-07-13T13:52:17;3.72;;;2.03;;
15679;SDS011;15488;48.114;11.532;2023-07-13T13:54:46;2.40;;;1.90;;
15679;SDS011;15488;48.114;11.532;2023-07-13T13:57:13;2.22;;;2.03;;
15679;SDS011;15488;48.114;11.532;2023-07-13T13:59:41;2.28;;;2.00;;
15679;SDS011;15488;48.114;11.532;2023-07-13T14:02:19;2.15;;;1.70;;
15679;SDS011;15488;48.114;11.532;2023-07-13T14:04:52;2.13;;;1.73;;
15679;SDS011;15488;48.114;11.532;2023-07-13T14:07:23;2.92;;;2.03;;
15679;SDS011;15488;48.114;11.532;2023-07-13T14:09:52;2.70;;;1.60;;
15679;SDS011;15488;48.114;11.532;2023-07-13T14:12:22;4.55;;;1.83;;
15679;SDS011;15488;48.114;11.532;2023-07-13T14:14:51;2.40;;;1.70;;
15679;SDS011;15488;48.114;11.532;2023-07-13T14:17:19;1.98;;;1.70;;
15679;SDS011;15488;48.114;11.532;2023-07-13T14:19:48;3.55;;;2.42;;
15679;SDS011;15488;48.114;11.532;2023-07-13T14:22:21;2.55;;;2.35;;
15679;SDS011;15488;48.114;11.532;2023-07-13T14:24:49;2.63;;;2.42;;
15679;SDS011;15488;48.114;11.532;2023-07-13T14:27:19;3.17;;;2.88;;
15679;SDS011;15488;48.114;11.532;2023-07-13T14:29:47;2.85;;;2.60;;
15679;SDS011;15488;48.114;11.532;2023-07-13T14:32:14;2.75;;;2.22;;
15679;SDS011;15488;48.114;11.532;2023-07-13T14:34:42;1.83;;;1.70;;
15679;SDS011;15488;48.114;11.532;2023-07-13T14:37:11;2.00;;;1.90;;
15679;SDS011;15488;48.114;11.532;2023-07-13T14:39:42;2.15;;;1.95;;
15679;SDS011;15488;48.114;11.532;2023-07-13T14:42:12;2.55;;;2.33;;
15679;SDS011;15488;48.114;11.532;2023-07-13T14:44:39;2.30;;;2.13;;
15679;SDS011;15488;48.114;11.532;2023-07-13T14:47:07;2.40;;;2.30;;
15679;SDS011;15488;48.114;11.532;2023-07-13T14:49:37;3.58;;;2.35;;
15679;SDS011;15488;48.114;11.532;2023-07-13T14:52:11;2.53;;;2.28;;
15679;SDS011;15488;48.114;11.532;2023-07-13T14:54:39;2.33;;;2.10;;
15679;SDS011;15488;48.114;11.532;2023-07-13T14:57:09;3.08;;;2.30;;
15679;SDS011;15488;48.114;11.532;2023-07-13T14:59:38;1.88;;;1.77;;